Time;durP1;ratioP1;P1;durP2;ratioP2;P2;SDS_P1;SDS_P2;PMS_P1;PMS_P2;Temp;Humidity;BMP_temperature;BMP_pressure;BME280_temperature;BME280_humidity;BME280_pressure;Samples;Min_cycle;Max_cycle;Signal;HPM_P1;HPM_P2
2022/10/17 00:00:45;;;;;;;19.40;10.97;;;5.90;99.90;;;;;;5052058;28;20245;-69
2022/10/17 00:03:12;;;;;;;18.13;11.13;;;5.90;99.90;;;;;;5052368;28;20202;-70
2022/10/17 00:05:40;;;;;;;17.23;10.40;;;5.90;99.90;;;;;;5052344;28;20209;-69
2022/10/17 00:08:08;;;;;;;17.87;10.57;;;5.90;99.90;;;;;;5064655;28;20192;-69
2022/10/17 00:10:35;;;;;;;16.90;10.33;;;5.90;99.90;;;;;;5072067;28;20221;-69
2022/10/17 00:13:02;;;;;;;18.30;10.93;;;5.90;99.90;;;;;;5091591;28;20204;-68
2022/10/17 00:15:29;;;;;;;17.73;10.73;;;5.90;99.90;;;;;;5092528;28;20270;-70
2022/10/17 00:17:56;;;;;;;18.33;11.20;;;5.90;99.90;;;;;;5092369;28;20583;-70
2022/10/17 00:20:23;;;;;;;18.03;10.97;;;5.90;99.90;;;;;;5092165;28;20208;-69
2022/10/17 00:22:49;;;;;;;20.20;11.23;;;5.80;99.90;;;;;;5092175;28;20214;-69
2022/10/17 00:25:18;;;;;;;17.23;10.77;;;5.90;99.90;;;;;;5090517;28;20200;-70
2022/10/17 00:27:45;;;;;;;20.03;11.23;;;5.80;99.90;;;;;;5092417;28;20196;-68
2022/10/17 00:30:14;;;;;;;16.20;11.10;;;5.70;99.90;;;;;;5092563;28;20658;-69
2022/10/17 00:32:41;;;;;;;17.57;11.07;;;5.70;99.90;;;;;;5092323;28;20207;-69
2022/10/17 00:35:09;;;;;;;18.10;10.97;;;5.70;99.90;;;;;;5089865;28;20204;-69
2022/10/17 00:37:36;;;;;;;19.33;11.43;;;5.70;99.90;;;;;;5089550;28;20223;-69
2022/10/17 00:40:04;;;;;;;20.13;11.33;;;5.60;99.90;;;;;;5092488;28;20564;-68
2022/10/17 00:42:32;;;;;;;20.30;11.83;;;5.60;99.90;;;;;;5091506;28;20212;-69
2022/10/17 00:45:20;;;;;;;17.23;10.57;;;5.50;99.90;;;;;;5092417;28;20206;-69
2022/10/17 00:47:50;;;;;;;21.57;10.80;;;5.50;99.90;;;;;;5091817;28;20188;-70
2022/10/17 00:50:17;;;;;;;17.10;11.47;;;5.40;99.90;;;;;;5091754;28;20210;-69
2022/10/17 00:52:45;;;;;;;19.20;11.43;;;5.40;99.90;;;;;;5084224;28;20295;-71
2022/10/17 00:55:18;;;;;;;18.83;11.70;;;5.30;99.90;;;;;;5092007;28;20211;-69
2022/10/17 00:57:46;;;;;;;21.70;11.03;;;5.30;99.90;;;;;;5091788;28;20212;-70
2022/10/17 01:00:15;;;;;;;21.57;11.90;;;5.30;99.90;;;;;;5091966;28;20203;-69
2022/10/17 01:02:42;;;;;;;20.50;11.70;;;5.20;99.90;;;;;;5107472;28;20215;-70
2022/10/17 01:05:10;;;;;;;17.30;11.17;;;5.20;99.90;;;;;;5092159;28;20243;-69
2022/10/17 01:07:39;;;;;;;17.70;11.23;;;5.10;99.90;;;;;;5088741;28;20218;-69
2022/10/17 01:10:07;;;;;;;19.07;11.60;;;5.10;99.90;;;;;;5088039;28;20220;-68
2022/10/17 01:12:45;;;;;;;20.17;12.27;;;5.00;99.90;;;;;;5089964;28;20202;-70
2022/10/17 01:15:21;;;;;;;23.40;11.77;;;5.00;99.90;;;;;;5051670;28;20545;-70
2022/10/17 01:17:57;;;;;;;17.17;11.27;;;5.00;99.90;;;;;;5051408;28;20213;-70
2022/10/17 01:20:59;;;;;;;18.33;11.53;;;5.00;99.90;;;;;;5051342;28;20204;-69
2022/10/17 01:23:53;;;;;;;18.90;11.53;;;5.00;99.90;;;;;;5076123;28;20207;-68
2022/10/17 01:26:26;;;;;;;16.70;11.43;;;5.00;99.90;;;;;;5091668;28;20207;-69
2022/10/17 01:29:33;;;;;;;18.17;11.13;;;5.00;99.90;;;;;;5091514;28;20196;-69
2022/10/17 01:32:04;;;;;;;17.40;11.00;;;5.00;99.90;;;;;;5090279;28;20203;-70
2022/10/17 01:34:34;;;;;;;17.63;11.20;;;5.00;99.90;;;;;;5091412;28;20192;-70
2022/10/17 01:37:06;;;;;;;19.37;11.50;;;5.00;99.90;;;;;;5091547;28;20193;-70
2022/10/17 01:39:42;;;;;;;20.90;11.83;;;5.00;99.90;;;;;;5089866;28;20204;-69
2022/10/17 01:42:15;;;;;;;18.97;11.20;;;5.00;99.90;;;;;;5091397;28;20195;-71
2022/10/17 01:44:49;;;;;;;20.00;12.00;;;5.00;99.90;;;;;;5090936;28;20196;-69
2022/10/17 01:47:20;;;;;;;21.90;11.30;;;5.10;99.90;;;;;;5091640;28;20187;-69
2022/10/17 01:49:50;;;;;;;19.07;11.07;;;5.10;99.90;;;;;;5061008;28;20212;-69
2022/10/17 01:52:22;;;;;;;21.97;11.87;;;5.10;99.90;;;;;;5051105;28;20308;-69
2022/10/17 01:54:52;;;;;;;18.07;10.70;;;5.10;99.90;;;;;;5053571;28;20659;-69
2022/10/17 01:57:25;;;;;;;17.50;11.13;;;5.10;99.90;;;;;;5054485;28;20186;-68
2022/10/17 01:59:52;;;;;;;16.77;10.43;;;5.10;99.90;;;;;;5054842;28;20189;-69
2022/10/17 02:02:21;;;;;;;15.83;10.63;;;5.10;99.90;;;;;;5054398;28;20570;-70
2022/10/17 02:04:49;;;;;;;16.87;10.27;;;5.20;99.90;;;;;;5082238;28;20213;-69
2022/10/17 02:07:16;;;;;;;17.23;10.83;;;5.20;99.90;;;;;;5083996;28;20207;-69
2022/10/17 02:09:43;;;;;;;19.70;11.03;;;5.20;99.90;;;;;;5094828;28;20231;-69
2022/10/17 02:12:33;;;;;;;16.47;10.50;;;5.20;99.90;;;;;;5095022;28;20207;-70
2022/10/17 02:15:14;;;;;;;20.07;10.83;;;5.30;99.90;;;;;;5094469;28;20198;-70
2022/10/17 02:17:48;;;;;;;18.30;11.80;;;5.30;99.90;;;;;;5094653;28;20212;-68
2022/10/17 02:20:21;;;;;;;19.67;11.57;;;5.30;99.90;;;;;;5094927;28;20195;-69
2022/10/17 02:22:56;;;;;;;21.17;11.10;;;5.30;99.90;;;;;;5093110;28;20204;-68
2022/10/17 02:25:31;;;;;;;17.97;11.20;;;5.30;99.90;;;;;;5094619;28;20218;-67
2022/10/17 02:28:05;;;;;;;20.17;11.50;;;5.30;99.90;;;;;;5094825;28;20560;-69
2022/10/17 02:30:36;;;;;;;17.63;10.77;;;5.30;99.90;;;;;;5094562;28;20559;-69
2022/10/17 02:33:09;;;;;;;16.03;10.83;;;5.30;99.90;;;;;;5094694;28;20189;-69
2022/10/17 02:35:39;;;;;;;17.10;10.83;;;5.30;99.90;;;;;;5093203;28;20242;-69
2022/10/17 02:38:08;;;;;;;18.73;11.07;;;5.30;99.90;;;;;;5054298;28;20217;-69
2022/10/17 02:40:37;;;;;;;18.50;11.53;;;5.30;99.90;;;;;;5053980;28;20227;-67
2022/10/17 02:43:04;;;;;;;17.57;11.13;;;5.30;99.90;;;;;;5053841;28;20221;-69
2022/10/17 02:45:35;;;;;;;18.37;10.87;;;5.30;99.90;;;;;;5078712;28;20214;-69
2022/10/17 02:48:06;;;;;;;19.57;10.60;;;5.20;99.90;;;;;;5094454;28;20241;-68
2022/10/17 02:50:44;;;;;;;20.13;11.50;;;5.20;99.90;;;;;;5094030;28;20188;-69
2022/10/17 02:53:15;;;;;;;21.17;12.37;;;5.20;99.90;;;;;;5091772;28;20204;-69
2022/10/17 02:55:49;;;;;;;18.43;11.50;;;5.20;99.90;;;;;;5094297;28;20200;-69
2022/10/17 02:58:20;;;;;;;19.50;11.40;;;5.20;99.90;;;;;;5093539;28;20224;-69
2022/10/17 03:00:48;;;;;;;17.30;11.23;;;5.20;99.90;;;;;;5091317;28;20232;-69
2022/10/17 03:03:27;;;;;;;20.27;11.93;;;5.20;99.90;;;;;;5091248;28;20208;-69
2022/10/17 03:05:54;;;;;;;16.53;10.50;;;5.20;99.90;;;;;;5093448;28;20188;-69
2022/10/17 03:08:21;;;;;;;21.23;11.37;;;5.20;99.90;;;;;;5093356;28;20204;-69
2022/10/17 03:10:48;;;;;;;16.63;10.87;;;5.20;99.90;;;;;;5093886;28;20200;-69
2022/10/17 03:13:15;;;;;;;18.60;11.60;;;5.20;99.90;;;;;;5088033;28;20204;-69
2022/10/17 03:15:42;;;;;;;21.43;12.13;;;5.20;99.90;;;;;;5093765;28;20211;-68
2022/10/17 03:18:09;;;;;;;17.87;11.00;;;5.20;99.90;;;;;;5093296;28;20223;-69
2022/10/17 03:20:37;;;;;;;17.60;11.03;;;5.20;99.90;;;;;;5094170;28;20210;-68
2022/10/17 03:23:04;;;;;;;22.97;11.10;;;5.20;99.90;;;;;;5095236;28;20204;-69
2022/10/17 03:25:31;;;;;;;16.40;11.23;;;5.20;99.90;;;;;;5087208;28;20200;-69
2022/10/17 03:27:59;;;;;;;18.87;11.57;;;5.30;99.90;;;;;;5093579;28;20199;-69
2022/10/17 03:30:26;;;;;;;17.97;11.30;;;5.30;99.90;;;;;;5093192;28;20696;-69
2022/10/17 03:32:53;;;;;;;19.17;11.83;;;5.30;99.90;;;;;;5093592;28;20200;-68
2022/10/17 03:35:19;;;;;;;18.03;11.50;;;5.30;99.90;;;;;;5093164;28;20229;-70
2022/10/17 03:37:47;;;;;;;18.93;11.73;;;5.30;99.90;;;;;;5093203;28;20206;-70
2022/10/17 03:40:15;;;;;;;19.80;12.37;;;5.30;99.90;;;;;;5089036;28;20201;-69
2022/10/17 03:42:41;;;;;;;20.20;11.87;;;5.30;99.90;;;;;;5093038;28;20219;-69
2022/10/17 03:45:09;;;;;;;20.07;11.87;;;5.30;99.90;;;;;;5092996;28;20204;-69
2022/10/17 03:47:36;;;;;;;19.83;11.97;;;5.30;99.90;;;;;;5092069;28;20200;-68
2022/10/17 03:50:03;;;;;;;19.20;12.20;;;5.30;99.90;;;;;;5093091;28;20200;-69
2022/10/17 03:52:29;;;;;;;18.53;12.27;;;5.30;99.90;;;;;;5092660;28;20223;-68
2022/10/17 03:54:58;;;;;;;21.00;12.90;;;5.20;99.90;;;;;;5091035;28;20563;-69
2022/10/17 03:57:24;;;;;;;21.93;12.13;;;5.20;99.90;;;;;;5091738;28;20204;-69
2022/10/17 03:59:51;;;;;;;21.50;11.73;;;5.20;99.90;;;;;;5092857;28;20235;-69
2022/10/17 04:02:18;;;;;;;15.97;10.77;;;5.20;99.90;;;;;;5088824;28;20292;-68
2022/10/17 04:04:45;;;;;;;18.03;11.20;;;5.20;99.90;;;;;;5093807;28;20226;-69
2022/10/17 04:07:12;;;;;;;18.97;10.93;;;5.20;99.90;;;;;;5093585;28;20207;-68
2022/10/17 04:09:38;;;;;;;19.60;11.57;;;5.20;99.90;;;;;;5093367;28;20204;-69
2022/10/17 04:12:07;;;;;;;19.87;10.60;;;5.20;99.90;;;;;;5087185;28;20196;-70
2022/10/17 04:14:33;;;;;;;18.10;10.93;;;5.20;99.90;;;;;;5091284;28;20212;-69
2022/10/17 04:17:00;;;;;;;18.67;11.07;;;5.20;99.90;;;;;;5092156;28;20204;-68
2022/10/17 04:19:27;;;;;;;23.70;14.60;;;5.20;99.90;;;;;;5092340;28;20592;-69
2022/10/17 04:21:54;;;;;;;20.27;12.77;;;5.20;99.90;;;;;;5092558;28;20203;-69
2022/10/17 04:24:21;;;;;;;23.23;13.23;;;5.20;99.90;;;;;;5092208;28;20204;-70
2022/10/17 04:26:49;;;;;;;17.77;11.33;;;5.20;99.90;;;;;;5092403;28;20337;-69
2022/10/17 04:29:18;;;;;;;20.47;11.47;;;5.20;99.90;;;;;;5087842;28;20201;-68
2022/10/17 04:31:44;;;;;;;19.97;11.87;;;5.10;99.90;;;;;;5092080;28;20210;-69
2022/10/17 04:34:12;;;;;;;22.03;12.63;;;5.10;99.90;;;;;;5091838;28;20215;-70
2022/10/17 04:36:40;;;;;;;23.30;12.40;;;5.10;99.90;;;;;;5092151;28;20310;-68
2022/10/17 04:39:06;;;;;;;23.27;13.47;;;5.00;99.90;;;;;;5091846;28;20228;-69
2022/10/17 04:41:33;;;;;;;24.33;14.03;;;5.00;99.90;;;;;;5088685;28;20208;-70
2022/10/17 04:44:00;;;;;;;21.17;12.73;;;5.10;99.90;;;;;;5088519;28;20208;-68
2022/10/17 04:46:28;;;;;;;21.67;11.93;;;5.10;99.90;;;;;;5092330;28;20200;-68
2022/10/17 04:48:55;;;;;;;21.87;12.57;;;5.10;99.90;;;;;;5090119;28;20207;-69
2022/10/17 04:51:22;;;;;;;22.10;13.27;;;5.10;99.90;;;;;;5092235;28;20219;-67
2022/10/17 04:53:48;;;;;;;24.27;14.00;;;5.10;99.90;;;;;;5092127;28;20280;-69
2022/10/17 04:56:18;;;;;;;24.10;13.30;;;5.20;99.90;;;;;;5092213;28;20200;-70
2022/10/17 04:58:45;;;;;;;19.70;13.10;;;5.10;99.90;;;;;;5088990;28;20252;-69
2022/10/17 05:01:14;;;;;;;22.07;13.73;;;5.20;99.90;;;;;;5091318;28;20235;-69
2022/10/17 05:03:42;;;;;;;22.20;13.10;;;5.20;99.90;;;;;;5091967;28;20210;-68
2022/10/17 05:06:11;;;;;;;25.50;12.87;;;5.20;99.90;;;;;;5091862;28;20200;-68
2022/10/17 05:08:37;;;;;;;23.87;12.93;;;5.30;99.90;;;;;;5091982;28;20294;-68
2022/10/17 05:11:05;;;;;;;21.83;12.90;;;5.30;99.90;;;;;;5091594;28;20570;-69
2022/10/17 05:13:32;;;;;;;24.43;12.27;;;5.30;99.90;;;;;;5090372;28;20200;-68
2022/10/17 05:16:00;;;;;;;17.43;11.20;;;5.30;99.90;;;;;;5091734;28;20224;-68
2022/10/17 05:18:27;;;;;;;21.10;12.40;;;5.40;99.90;;;;;;5091697;28;20614;-68
2022/10/17 05:20:55;;;;;;;24.27;13.50;;;5.40;99.90;;;;;;5091492;28;20238;-69
2022/10/17 05:23:22;;;;;;;21.33;12.87;;;5.40;99.90;;;;;;5091892;28;20211;-72
2022/10/17 05:25:53;;;;;;;23.00;12.70;;;5.50;99.90;;;;;;5092047;28;20211;-70
2022/10/17 05:28:20;;;;;;;19.07;12.13;;;5.60;99.90;;;;;;5084455;28;20204;-69
2022/10/17 05:30:47;;;;;;;23.43;13.10;;;5.60;99.90;;;;;;5075499;28;20212;-70
2022/10/17 05:33:13;;;;;;;23.47;13.33;;;5.70;99.90;;;;;;5079177;28;20253;-68
2022/10/17 05:35:40;;;;;;;23.53;13.13;;;5.70;99.90;;;;;;5095517;28;20214;-68
2022/10/17 05:38:08;;;;;;;19.80;12.30;;;5.80;99.90;;;;;;5095342;28;20688;-68
2022/10/17 05:40:35;;;;;;;17.53;11.67;;;5.80;99.90;;;;;;5095421;28;20226;-67
2022/10/17 05:43:02;;;;;;;21.03;11.60;;;5.90;99.90;;;;;;5093599;28;20204;-69
2022/10/17 05:45:29;;;;;;;20.53;11.70;;;5.90;99.90;;;;;;5095294;28;20203;-69
2022/10/17 05:47:55;;;;;;;18.27;11.07;;;6.00;99.90;;;;;;5095281;28;20248;-68
2022/10/17 05:50:24;;;;;;;21.00;11.40;;;6.10;99.90;;;;;;5094986;28;20200;-68
2022/10/17 05:52:53;;;;;;;20.10;10.83;;;6.10;99.90;;;;;;5093780;28;20575;-69
2022/10/17 05:55:21;;;;;;;18.20;10.37;;;6.20;99.90;;;;;;5095269;28;20200;-70
2022/10/17 05:57:48;;;;;;;19.07;11.63;;;6.30;99.90;;;;;;5094677;28;20557;-71
2022/10/17 06:00:15;;;;;;;16.57;10.43;;;6.40;99.90;;;;;;5092843;28;20232;-70
2022/10/17 06:02:44;;;;;;;18.77;10.97;;;6.40;99.90;;;;;;5094235;28;20203;-67
2022/10/17 06:05:11;;;;;;;19.43;11.20;;;6.50;99.90;;;;;;5093233;28;20232;-69
2022/10/17 06:07:39;;;;;;;18.43;10.13;;;6.60;99.90;;;;;;5095101;28;20294;-70
2022/10/17 06:10:06;;;;;;;20.23;10.57;;;6.60;99.90;;;;;;5081893;28;20201;-68
2022/10/17 06:12:35;;;;;;;16.90;9.83;;;6.70;99.90;;;;;;5071809;28;20271;-68
2022/10/17 06:15:01;;;;;;;15.93;9.70;;;6.80;99.90;;;;;;5071464;28;20205;-68
2022/10/17 06:17:29;;;;;;;16.03;9.77;;;6.90;99.90;;;;;;5072934;28;20548;-69
2022/10/17 06:19:56;;;;;;;14.67;9.50;;;7.00;99.90;;;;;;5077956;28;20377;-69
2022/10/17 06:22:23;;;;;;;18.23;8.93;;;7.00;99.90;;;;;;5072880;28;20209;-70
2022/10/17 06:24:51;;;;;;;15.13;8.73;;;7.10;99.90;;;;;;5073016;28;20216;-69
2022/10/17 06:27:18;;;;;;;16.67;9.67;;;7.20;99.90;;;;;;5073945;28;20250;-69
2022/10/17 06:29:46;;;;;;;17.73;9.50;;;7.30;99.90;;;;;;5071517;28;20208;-69
2022/10/17 06:32:13;;;;;;;12.50;8.17;;;7.40;99.90;;;;;;5071863;28;20201;-70
2022/10/17 06:34:40;;;;;;;16.13;9.23;;;7.50;99.90;;;;;;5073576;28;20216;-69
2022/10/17 06:37:07;;;;;;;15.70;9.30;;;7.60;99.90;;;;;;5073974;28;20211;-70
2022/10/17 06:39:35;;;;;;;13.03;8.57;;;7.60;99.90;;;;;;5072736;28;20217;-69
2022/10/17 06:42:03;;;;;;;19.00;9.93;;;7.70;99.90;;;;;;5073520;28;20646;-70
2022/10/17 06:44:30;;;;;;;18.73;10.50;;;7.80;99.90;;;;;;5074200;28;20239;-71
2022/10/17 06:46:59;;;;;;;14.77;8.60;;;7.90;99.90;;;;;;5074316;28;20204;-69
2022/10/17 06:49:26;;;;;;;14.60;8.27;;;8.00;99.90;;;;;;5073438;28;20204;-69
2022/10/17 06:51:53;;;;;;;16.63;9.30;;;8.10;99.90;;;;;;5074043;28;20208;-69
2022/10/17 06:54:20;;;;;;;12.23;7.40;;;8.20;99.90;;;;;;5081515;28;20212;-70
2022/10/17 06:56:46;;;;;;;10.90;7.37;;;8.30;99.90;;;;;;5091554;28;20571;-71
2022/10/17 06:59:14;;;;;;;13.73;7.70;;;8.40;99.90;;;;;;5093959;28;20226;-71
2022/10/17 07:01:41;;;;;;;14.17;7.30;;;8.50;99.90;;;;;;5072985;28;20236;-71
2022/10/17 07:04:09;;;;;;;12.37;7.30;;;8.60;99.90;;;;;;5073721;28;20209;-69
2022/10/17 07:06:37;;;;;;;12.47;7.67;;;8.70;99.90;;;;;;5073759;28;20232;-71
2022/10/17 07:09:05;;;;;;;13.77;7.43;;;8.80;99.90;;;;;;5073736;28;20205;-70
2022/10/17 07:11:33;;;;;;;12.17;7.17;;;8.90;99.90;;;;;;5073993;28;20573;-72
2022/10/17 07:13:59;;;;;;;12.57;7.73;;;9.00;99.90;;;;;;5086640;28;20200;-71
2022/10/17 07:16:27;;;;;;;13.40;7.70;;;9.10;99.90;;;;;;5091488;28;20206;-72
2022/10/17 07:18:54;;;;;;;13.63;6.93;;;9.20;99.90;;;;;;5093075;28;20234;-70
2022/10/17 07:21:22;;;;;;;12.37;6.73;;;9.20;99.90;;;;;;5093929;28;20220;-72
2022/10/17 07:23:49;;;;;;;11.10;6.77;;;9.30;99.90;;;;;;5090261;28;20204;-72
2022/10/17 07:26:17;;;;;;;10.27;6.90;;;9.40;99.90;;;;;;5093338;28;20204;-71
2022/10/17 07:28:46;;;;;;;11.93;6.70;;;9.50;99.90;;;;;;5090120;28;20200;-72
2022/10/17 07:31:14;;;;;;;18.37;10.57;;;9.60;99.90;;;;;;5090721;28;20201;-71
2022/10/17 07:33:41;;;;;;;14.67;7.37;;;9.60;99.90;;;;;;5093449;28;20204;-72
2022/10/17 07:36:09;;;;;;;12.50;6.77;;;9.70;99.90;;;;;;5078530;28;20204;-72
2022/10/17 07:38:38;;;;;;;13.40;6.83;;;9.80;99.90;;;;;;5073236;28;20212;-74
2022/10/17 07:41:07;;;;;;;11.20;6.93;;;9.90;99.90;;;;;;5086684;28;20231;-74
2022/10/17 07:43:35;;;;;;;10.77;6.90;;;9.90;99.90;;;;;;5093327;28;20300;-71
2022/10/17 07:46:02;;;;;;;14.97;7.10;;;10.00;99.90;;;;;;5093479;28;20207;-70
2022/10/17 07:48:30;;;;;;;14.93;7.33;;;10.10;99.90;;;;;;5093314;28;20207;-71
2022/10/17 07:50:56;;;;;;;13.17;7.37;;;10.20;99.90;;;;;;5092759;28;20210;-70
2022/10/17 07:53:23;;;;;;;14.70;7.70;;;10.20;99.90;;;;;;5092866;28;20215;-71
2022/10/17 07:55:51;;;;;;;14.67;7.90;;;10.30;99.90;;;;;;5088113;28;20211;-72
2022/10/17 07:58:18;;;;;;;13.90;8.03;;;10.40;99.90;;;;;;5092697;28;20204;-71
2022/10/17 08:00:47;;;;;;;14.57;7.70;;;10.40;99.90;;;;;;5093068;28;20241;-73
2022/10/17 08:03:14;;;;;;;10.90;7.30;;;10.50;99.90;;;;;;5093336;28;20208;-71
2022/10/17 08:05:40;;;;;;;13.33;7.33;;;10.60;99.90;;;;;;5087699;28;20577;-72
2022/10/17 08:08:07;;;;;;;12.23;7.43;;;10.60;99.90;;;;;;5093404;28;20200;-70
2022/10/17 08:10:34;;;;;;;11.50;7.17;;;10.70;99.90;;;;;;5093559;28;20713;-72
2022/10/17 08:13:02;;;;;;;12.50;7.03;;;10.80;99.90;;;;;;5094146;28;20203;-71
2022/10/17 08:15:30;;;;;;;12.67;7.40;;;10.80;99.90;;;;;;5090752;28;20566;-73
2022/10/17 08:17:57;;;;;;;13.03;7.03;;;10.90;99.90;;;;;;5093792;28;20207;-72
2022/10/17 08:20:23;;;;;;;13.20;7.10;;;10.90;99.90;;;;;;5093609;28;20701;-74
2022/10/17 08:22:54;;;;;;;8.90;6.30;;;11.00;99.90;;;;;;5093927;28;20571;-72
2022/10/17 08:25:21;;;;;;;18.03;8.00;;;11.10;99.90;;;;;;5090727;28;20196;-72
2022/10/17 08:27:48;;;;;;;11.73;7.63;;;11.10;99.90;;;;;;5090499;28;20200;-71
2022/10/17 08:30:17;;;;;;;14.77;6.87;;;11.20;99.90;;;;;;5092691;28;20196;-73
2022/10/17 08:32:44;;;;;;;13.80;6.57;;;11.30;99.90;;;;;;5092694;28;20600;-71
2022/10/17 08:35:11;;;;;;;13.27;6.70;;;11.40;99.90;;;;;;5092889;28;20204;-71
2022/10/17 08:37:38;;;;;;;14.27;6.57;;;11.40;99.90;;;;;;5092412;28;20200;-71
2022/10/17 08:40:05;;;;;;;12.60;6.07;;;11.50;99.90;;;;;;5092256;28;20223;-71
2022/10/17 08:42:48;;;;;;;10.17;6.37;;;11.60;99.90;;;;;;5089701;28;20203;-73
2022/10/17 08:45:25;;;;;;;13.20;6.17;;;11.60;99.90;;;;;;5092495;28;20195;-72
2022/10/17 08:47:57;;;;;;;10.27;6.00;;;11.70;99.90;;;;;;5092353;28;20198;-72
2022/10/17 08:50:30;;;;;;;10.50;6.23;;;11.80;99.90;;;;;;5092008;28;20482;-72
2022/10/17 08:53:02;;;;;;;15.23;7.00;;;11.90;99.90;;;;;;5092202;28;20188;-70
2022/10/17 08:55:33;;;;;;;10.83;6.37;;;11.90;99.90;;;;;;5090370;28;20195;-71
2022/10/17 08:58:00;;;;;;;10.33;6.00;;;12.00;99.90;;;;;;5071640;28;20254;-70
2022/10/17 09:00:30;;;;;;;11.17;5.93;;;12.10;99.90;;;;;;5070503;28;20614;-71
2022/10/17 09:03:15;;;;;;;13.03;6.60;;;12.20;99.90;;;;;;5071680;28;20192;-71
2022/10/17 09:05:50;;;;;;;10.63;6.13;;;12.30;99.90;;;;;;5071337;28;20570;-71
2022/10/17 09:08:31;;;;;;;12.20;6.07;;;12.30;99.90;;;;;;5071740;28;20626;-70
2022/10/17 09:11:04;;;;;;;12.03;6.40;;;12.40;99.90;;;;;;5072114;28;20220;-69
2022/10/17 09:13:43;;;;;;;12.50;6.10;;;12.50;99.90;;;;;;5071380;28;20192;-67
2022/10/17 09:16:29;;;;;;;12.13;6.20;;;12.50;99.90;;;;;;5071568;28;20196;-70
2022/10/17 09:19:01;;;;;;;12.93;6.40;;;12.60;99.90;;;;;;5051566;28;20189;-69
2022/10/17 09:21:37;;;;;;;12.87;6.10;;;12.70;99.90;;;;;;5069217;28;20215;-70
2022/10/17 09:24:11;;;;;;;13.93;6.70;;;12.70;99.90;;;;;;5070478;28;20200;-69
2022/10/17 09:26:39;;;;;;;11.53;6.37;;;12.80;99.90;;;;;;5069149;28;20192;-69
2022/10/17 09:29:15;;;;;;;12.60;6.27;;;12.90;99.90;;;;;;5081781;28;20204;-69
2022/10/17 09:31:47;;;;;;;11.17;5.53;;;12.90;99.90;;;;;;5071269;28;20185;-69
2022/10/17 09:34:14;;;;;;;10.33;5.87;;;13.00;99.90;;;;;;5071762;28;20189;-70
2022/10/17 09:36:42;;;;;;;12.83;6.37;;;13.10;99.90;;;;;;5070325;28;20205;-70
2022/10/17 09:39:13;;;;;;;9.50;5.73;;;13.10;99.90;;;;;;5060555;28;20557;-69
2022/10/17 09:41:44;;;;;;;11.13;5.87;;;13.20;99.90;;;;;;5071029;28;20213;-70
2022/10/17 09:44:16;;;;;;;10.67;5.53;;;13.30;99.90;;;;;;5072271;28;20266;-71
2022/10/17 09:46:58;;;;;;;11.13;5.93;;;13.30;99.90;;;;;;5071008;28;20196;-69
2022/10/17 09:49:31;;;;;;;10.37;5.43;;;13.40;99.90;;;;;;5070878;28;20215;-69
2022/10/17 09:51:59;;;;;;;12.30;6.40;;;13.40;99.90;;;;;;5071273;28;20627;-70
2022/10/17 09:54:28;;;;;;;11.77;6.20;;;13.50;99.90;;;;;;5070928;28;20205;-68
2022/10/17 09:57:00;;;;;;;12.70;5.50;;;13.60;99.90;;;;;;5081262;28;20200;-70
2022/10/17 09:59:33;;;;;;;12.07;5.70;;;13.60;99.90;;;;;;5084500;28;20193;-69
2022/10/17 10:02:14;;;;;;;12.47;5.50;;;13.60;99.90;;;;;;5070591;28;20236;-72
2022/10/17 10:04:56;;;;;;;9.00;4.97;;;13.70;99.90;;;;;;5068803;28;20225;-69
2022/10/17 10:07:23;;;;;;;10.23;5.13;;;13.80;99.90;;;;;;5070528;28;20650;-72
2022/10/17 10:09:51;;;;;;;14.70;9.13;;;13.80;99.90;;;;;;5071017;28;20201;-71
2022/10/17 10:12:20;;;;;;;11.47;6.37;;;13.90;99.90;;;;;;5071414;28;20700;-73
2022/10/17 10:14:46;;;;;;;10.20;5.27;;;13.90;99.90;;;;;;5072468;28;20211;-74
2022/10/17 10:17:35;;;;;;;10.40;4.87;;;14.00;99.90;;;;;;5074522;28;20447;-70
2022/10/17 10:20:22;;;;;;;7.70;4.83;;;14.10;99.90;;;;;;5054402;28;20205;-70
2022/10/17 10:23:05;;;;;;;8.80;5.70;;;14.10;99.90;;;;;;5062332;28;20196;-70
2022/10/17 10:25:33;;;;;;;12.00;5.07;;;14.20;99.90;;;;;;5074218;28;20211;-71
2022/10/17 10:28:00;;;;;;;9.70;4.80;;;14.20;99.90;;;;;;5074493;28;20200;-69
2022/10/17 10:30:30;;;;;;;9.63;5.00;;;14.30;99.90;;;;;;5073988;28;20258;-69
2022/10/17 10:33:00;;;;;;;7.27;4.77;;;14.30;99.90;;;;;;5074522;28;20207;-68
2022/10/17 10:35:32;;;;;;;9.00;4.87;;;14.30;99.90;;;;;;5083437;28;20219;-71
2022/10/17 10:38:03;;;;;;;11.47;5.53;;;14.40;99.90;;;;;;5094656;28;20203;-70
2022/10/17 10:40:36;;;;;;;9.93;5.83;;;14.50;99.90;;;;;;5094246;28;20662;-69
2022/10/17 10:43:04;;;;;;;8.53;5.10;;;14.50;99.90;;;;;;5094591;28;20188;-70
2022/10/17 10:45:42;;;;;;;12.97;5.23;;;14.60;99.90;;;;;;5078558;28;20229;-71
2022/10/17 10:48:20;;;;;;;10.43;5.53;;;14.60;99.90;;;;;;5073432;28;20193;-71
2022/10/17 10:50:50;;;;;;;8.17;4.80;;;14.70;99.90;;;;;;5075298;28;20725;-69
2022/10/17 10:53:29;;;;;;;9.87;5.70;;;14.70;99.90;;;;;;5079422;28;20220;-72
2022/10/17 10:56:00;;;;;;;11.47;5.53;;;14.80;99.90;;;;;;5074253;28;20197;-70
2022/10/17 10:58:36;;;;;;;10.33;4.83;;;14.80;99.90;;;;;;5076729;28;20203;-71
2022/10/17 11:01:06;;;;;;;8.07;4.63;;;14.80;99.90;;;;;;5073867;28;20246;-70
2022/10/17 11:03:40;;;;;;;10.13;4.70;;;14.90;99.90;;;;;;5073628;28;20185;-70
2022/10/17 11:06:22;;;;;;;8.70;4.40;;;14.90;99.90;;;;;;5073663;28;20217;-71
2022/10/17 11:08:51;;;;;;;6.30;4.30;;;15.00;99.90;;;;;;5074409;28;20212;-71
2022/10/17 11:11:28;;;;;;;10.00;4.67;;;15.00;99.90;;;;;;5073713;28;20197;-69
2022/10/17 11:14:01;;;;;;;8.77;4.63;;;15.00;99.90;;;;;;5073678;28;20192;-70
2022/10/17 11:16:33;;;;;;;7.77;4.60;;;15.10;99.90;;;;;;5073677;28;20650;-69
2022/10/17 11:19:12;;;;;;;9.97;4.57;;;15.10;99.90;;;;;;5073684;28;20195;-69
2022/10/17 11:21:45;;;;;;;7.27;4.40;;;15.20;99.90;;;;;;5073663;28;20209;-72
2022/10/17 11:24:20;;;;;;;9.77;4.43;;;15.20;99.90;;;;;;5073528;28;20557;-70
2022/10/17 11:26:53;;;;;;;11.17;4.63;;;15.30;99.90;;;;;;5074410;28;20230;-69
2022/10/17 11:29:22;;;;;;;7.50;4.27;;;15.30;99.90;;;;;;5073209;28;20635;-71
2022/10/17 11:31:53;;;;;;;9.07;4.93;;;15.40;99.90;;;;;;5073929;28;20557;-70
2022/10/17 11:34:26;;;;;;;9.83;4.80;;;15.40;99.90;;;;;;5073845;28;20206;-68
2022/10/17 11:36:56;;;;;;;11.27;5.10;;;15.40;99.90;;;;;;5073228;28;20185;-70
2022/10/17 11:39:30;;;;;;;8.27;4.83;;;15.50;99.90;;;;;;5073367;28;20671;-71
2022/10/17 11:42:02;;;;;;;8.23;4.60;;;15.50;99.90;;;;;;5073233;28;20228;-70
2022/10/17 11:44:34;;;;;;;7.47;4.50;;;15.60;99.90;;;;;;5073635;28;20208;-70
2022/10/17 11:47:06;;;;;;;7.67;4.63;;;15.60;99.90;;;;;;5072268;28;20193;-69
2022/10/17 11:49:36;;;;;;;9.40;5.53;;;15.60;99.90;;;;;;5072790;28;20193;-70
2022/10/17 11:52:17;;;;;;;8.17;4.90;;;15.70;99.90;;;;;;5072119;28;20215;-70
2022/10/17 11:54:50;;;;;;;12.60;4.90;;;15.60;99.90;;;;;;5073003;28;20193;-69
2022/10/17 11:57:36;;;;;;;7.00;4.30;;;15.70;99.90;;;;;;5065344;28;20200;-71
2022/10/17 12:00:20;;;;;;;6.97;4.40;;;15.80;99.90;;;;;;5078012;28;20227;-71
2022/10/17 12:02:53;;;;;;;7.47;4.00;;;15.80;99.90;;;;;;5093032;28;20214;-71
2022/10/17 12:05:27;;;;;;;7.03;4.27;;;15.80;99.90;;;;;;5092341;28;20228;-71
2022/10/17 12:08:01;;;;;;;9.37;4.50;;;15.90;99.90;;;;;;5066779;28;20265;-70
2022/10/17 12:10:36;;;;;;;6.67;4.03;;;15.90;99.90;;;;;;5072361;28;20593;-70
2022/10/17 12:13:41;;;;;;;10.90;4.07;;;15.90;99.90;;;;;;5072481;28;20197;-70
2022/10/17 12:16:47;;;;;;;6.97;4.03;;;16.00;99.90;;;;;;5072239;28;20205;-70
2022/10/17 12:19:33;;;;;;;10.40;4.07;;;16.00;99.90;;;;;;5063595;28;20286;-71
2022/10/17 12:22:18;;;;;;;8.87;3.70;;;16.00;99.90;;;;;;5063717;28;20256;-70
2022/10/17 12:24:52;;;;;;;6.90;4.27;;;16.00;99.90;;;;;;5052101;28;20236;-72
2022/10/17 12:27:41;;;;;;;7.50;3.93;;;16.10;99.90;;;;;;5060656;28;20557;-69
2022/10/17 12:30:18;;;;;;;11.67;6.83;;;16.10;99.90;;;;;;5057965;28;20618;-70
2022/10/17 12:33:14;;;;;;;8.60;5.20;;;16.10;99.90;;;;;;5071251;28;20188;-70
2022/10/17 12:35:40;;;;;;;10.77;5.40;;;16.10;99.90;;;;;;5072038;28;20209;-70
2022/10/17 12:38:29;;;;;;;6.93;4.50;;;16.10;99.90;;;;;;5071373;28;20197;-72
2022/10/17 12:40:58;;;;;;;9.33;4.60;;;16.20;99.90;;;;;;5056183;28;20188;-71
2022/10/17 12:43:55;;;;;;;9.23;4.60;;;16.20;99.90;;;;;;5071474;28;20211;-70
2022/10/17 12:46:56;;;;;;;7.60;4.50;;;16.20;99.90;;;;;;5071915;28;20190;-71
2022/10/17 12:49:41;;;;;;;6.87;4.20;;;16.20;99.90;;;;;;5071739;28;20189;-70
2022/10/17 12:52:44;;;;;;;10.23;4.50;;;16.20;99.90;;;;;;5072309;28;20206;-71
2022/10/17 12:55:15;;;;;;;9.33;4.67;;;16.20;99.90;;;;;;5051868;28;20205;-70
2022/10/17 12:57:48;;;;;;;8.83;4.90;;;16.20;99.90;;;;;;5051922;28;20214;-70
2022/10/17 13:00:23;;;;;;;8.27;4.50;;;16.20;99.90;;;;;;5070307;28;20567;-71